sensor_id;sensor_type;location;lat;lon;timestamp;pressure;altitude;pressure_sealevel;temperature;humidity
28606;BME280;46498;49.968;7.754;2023-08-17T00:02:58;-18804.00;;;16.52;nan
28606;BME280;46498;49.968;7.754;2023-08-17T00:08:00;-18804.00;;;16.51;nan
28606;BME280;46498;49.968;7.754;2023-08-17T00:13:02;-18796.00;;;16.29;nan
28606;BME280;46498;49.968;7.754;2023-08-17T00:18:04;-18797.00;;;16.29;nan
28606;BME280;46498;49.968;7.754;2023-08-17T00:23:05;-18795.00;;;16.23;nan
28606;BME280;46498;49.968;7.754;2023-08-17T00:28:06;-18795.00;;;16.24;nan
28606;BME280;46498;49.968;7.754;2023-08-17T00:33:06;-18793.00;;;16.16;nan
28606;BME280;46498;49.968;7.754;2023-08-17T00:38:07;-18790.00;;;16.07;nan
28606;BME280;46498;49.968;7.754;2023-08-17T00:43:09;-18790.00;;;16.09;nan
28606;BME280;46498;49.968;7.754;2023-08-17T00:48:10;-18790.00;;;16.08;nan
28606;BME280;46498;49.968;7.754;2023-08-17T00:53:12;-18785.00;;;15.94;nan
28606;BME280;46498;49.968;7.754;2023-08-17T00:58:14;-18785.00;;;15.94;nan
28606;BME280;46498;49.968;7.754;2023-08-17T01:03:16;-18786.00;;;15.97;nan
28606;BME280;46498;49.968;7.754;2023-08-17T01:08:18;-18791.00;;;16.11;nan
28606;BME280;46498;49.968;7.754;2023-08-17T01:13:25;-18796.00;;;16.26;nan
28606;BME280;46498;49.968;7.754;2023-08-17T01:18:35;-18802.00;;;16.45;nan
28606;BME280;46498;49.968;7.754;2023-08-17T01:23:37;-18799.00;;;16.37;nan
28606;BME280;46498;49.968;7.754;2023-08-17T01:28:38;-18799.00;;;16.37;nan
28606;BME280;46498;49.968;7.754;2023-08-17T01:33:45;-18798.00;;;16.35;nan
28606;BME280;46498;49.968;7.754;2023-08-17T01:38:51;-18803.00;;;16.50;nan
28606;BME280;46498;49.968;7.754;2023-08-17T01:43:52;-18807.00;;;16.61;nan
28606;BME280;46498;49.968;7.754;2023-08-17T01:48:54;-18802.00;;;16.45;nan
28606;BME280;46498;49.968;7.754;2023-08-17T01:53:57;-18802.00;;;16.46;nan
28606;BME280;46498;49.968;7.754;2023-08-17T01:58:58;-18807.00;;;16.61;nan
28606;BME280;46498;49.968;7.754;2023-08-17T02:03:59;-18808.00;;;16.66;nan
28606;BME280;46498;49.968;7.754;2023-08-17T02:09:02;-18809.00;;;16.67;nan
28606;BME280;46498;49.968;7.754;2023-08-17T02:14:03;-18810.00;;;16.72;nan
28606;BME280;46498;49.968;7.754;2023-08-17T02:19:04;-18810.00;;;16.70;nan
28606;BME280;46498;49.968;7.754;2023-08-17T02:24:06;-18809.00;;;16.69;nan
28606;BME280;46498;49.968;7.754;2023-08-17T02:29:07;-18809.00;;;16.67;nan
28606;BME280;46498;49.968;7.754;2023-08-17T02:34:08;-18803.00;;;16.48;nan
28606;BME280;46498;49.968;7.754;2023-08-17T02:39:10;-18799.00;;;16.36;nan
28606;BME280;46498;49.968;7.754;2023-08-17T02:44:11;-18799.00;;;16.36;nan
28606;BME280;46498;49.968;7.754;2023-08-17T02:49:12;-18797.00;;;16.31;nan
28606;BME280;46498;49.968;7.754;2023-08-17T02:54:12;-18795.00;;;16.25;nan
28606;BME280;46498;49.968;7.754;2023-08-17T02:59:13;-18796.00;;;16.28;nan
28606;BME280;46498;49.968;7.754;2023-08-17T03:04:14;-18800.00;;;16.40;nan
28606;BME280;46498;49.968;7.754;2023-08-17T03:09:15;-18800.00;;;16.41;nan
28606;BME280;46498;49.968;7.754;2023-08-17T03:14:16;-18801.00;;;16.42;nan
28606;BME280;46498;49.968;7.754;2023-08-17T03:19:18;-18802.00;;;16.45;nan
28606;BME280;46498;49.968;7.754;2023-08-17T03:24:19;-18800.00;;;16.40;nan
28606;BME280;46498;49.968;7.754;2023-08-17T03:29:21;-18797.00;;;16.29;nan
28606;BME280;46498;49.968;7.754;2023-08-17T03:34:22;-18794.00;;;16.22;nan
28606;BME280;46498;49.968;7.754;2023-08-17T03:39:24;-18791.00;;;16.11;nan
28606;BME280;46498;49.968;7.754;2023-08-17T03:44:24;-18791.00;;;16.10;nan
28606;BME280;46498;49.968;7.754;2023-08-17T03:49:25;-18790.00;;;16.09;nan
28606;BME280;46498;49.968;7.754;2023-08-17T03:54:27;-18787.00;;;15.98;nan
28606;BME280;46498;49.968;7.754;2023-08-17T03:59:29;-18786.00;;;15.95;nan
28606;BME280;46498;49.968;7.754;2023-08-17T04:04:30;-18785.00;;;15.94;nan
28606;BME280;46498;49.968;7.754;2023-08-17T04:09:31;-18787.00;;;15.98;nan
28606;BME280;46498;49.968;7.754;2023-08-17T04:14:34;-18785.00;;;15.93;nan
28606;BME280;46498;49.968;7.754;2023-08-17T04:19:35;-18785.00;;;15.93;nan
28606;BME280;46498;49.968;7.754;2023-08-17T04:24:35;-18786.00;;;15.97;nan
28606;BME280;46498;49.968;7.754;2023-08-17T04:29:37;-18783.00;;;15.86;nan
28606;BME280;46498;49.968;7.754;2023-08-17T04:34:38;-18788.00;;;16.02;nan
28606;BME280;46498;49.968;7.754;2023-08-17T04:39:39;-18787.00;;;15.98;nan
28606;BME280;46498;49.968;7.754;2023-08-17T04:44:42;-18786.00;;;15.95;nan
28606;BME280;46498;49.968;7.754;2023-08-17T04:49:43;-18787.00;;;15.99;nan
28606;BME280;46498;49.968;7.754;2023-08-17T04:54:44;-18785.00;;;15.92;nan
28606;BME280;46498;49.968;7.754;2023-08-17T04:59:45;-18786.00;;;15.96;nan
28606;BME280;46498;49.968;7.754;2023-08-17T05:04:46;-18788.00;;;16.02;nan
28606;BME280;46498;49.968;7.754;2023-08-17T05:09:50;-18791.00;;;16.11;nan
28606;BME280;46498;49.968;7.754;2023-08-17T05:14:51;-18795.00;;;16.23;nan
28606;BME280;46498;49.968;7.754;2023-08-17T05:19:52;-18800.00;;;16.39;nan
28606;BME280;46498;49.968;7.754;2023-08-17T05:24:53;-18802.00;;;16.45;nan
28606;BME280;46498;49.968;7.754;2023-08-17T05:29:54;-18801.00;;;16.43;nan
28606;BME280;46498;49.968;7.754;2023-08-17T05:34:56;-18804.00;;;16.53;nan
28606;BME280;46498;49.968;7.754;2023-08-17T05:39:57;-18810.00;;;16.70;nan
28606;BME280;46498;49.968;7.754;2023-08-17T05:44:59;-18816.00;;;16.91;nan
28606;BME280;46498;49.968;7.754;2023-08-17T05:50:00;-18828.00;;;17.27;nan
28606;BME280;46498;49.968;7.754;2023-08-17T05:55:01;-18836.00;;;17.52;nan
28606;BME280;46498;49.968;7.754;2023-08-17T06:00:03;-18837.00;;;17.56;nan
28606;BME280;46498;49.968;7.754;2023-08-17T06:05:12;-18837.00;;;17.57;nan
28606;BME280;46498;49.968;7.754;2023-08-17T06:10:14;-18838.00;;;17.60;nan
28606;BME280;46498;49.968;7.754;2023-08-17T06:15:15;-18841.00;;;17.69;nan
28606;BME280;46498;49.968;7.754;2023-08-17T06:20:16;-18851.00;;;17.99;nan
28606;BME280;46498;49.968;7.754;2023-08-17T06:25:17;-18857.00;;;18.19;nan
28606;BME280;46498;49.968;7.754;2023-08-17T06:30:18;-18869.00;;;18.58;nan
28606;BME280;46498;49.968;7.754;2023-08-17T06:35:19;-18882.00;;;18.97;nan
28606;BME280;46498;49.968;7.754;2023-08-17T06:40:20;-18888.00;;;19.15;nan
28606;BME280;46498;49.968;7.754;2023-08-17T06:45:21;-18883.00;;;19.02;nan
28606;BME280;46498;49.968;7.754;2023-08-17T06:50:23;-18885.00;;;19.07;nan
28606;BME280;46498;49.968;7.754;2023-08-17T06:55:24;-18894.00;;;19.34;nan
28606;BME280;46498;49.968;7.754;2023-08-17T07:00:25;-18891.00;;;19.26;nan
28606;BME280;46498;49.968;7.754;2023-08-17T07:05:27;-18886.00;;;19.09;nan
28606;BME280;46498;49.968;7.754;2023-08-17T07:10:28;-18879.00;;;18.89;nan
28606;BME280;46498;49.968;7.754;2023-08-17T07:15:32;-18884.00;;;19.05;nan
28606;BME280;46498;49.968;7.754;2023-08-17T07:20:33;-18893.00;;;19.32;nan
28606;BME280;46498;49.968;7.754;2023-08-17T07:25:34;-18896.00;;;19.41;nan
28606;BME280;46498;49.968;7.754;2023-08-17T07:30:35;-18895.00;;;19.39;nan
28606;BME280;46498;49.968;7.754;2023-08-17T07:35:36;-18892.00;;;19.28;nan
28606;BME280;46498;49.968;7.754;2023-08-17T07:40:36;-18899.00;;;19.51;nan
28606;BME280;46498;49.968;7.754;2023-08-17T07:45:37;-18904.00;;;19.66;nan
28606;BME280;46498;49.968;7.754;2023-08-17T07:50:38;-18906.00;;;19.74;nan
28606;BME280;46498;49.968;7.754;2023-08-17T07:55:39;-18913.00;;;19.96;nan
28606;BME280;46498;49.968;7.754;2023-08-17T08:00:40;-18916.00;;;20.06;nan
28606;BME280;46498;49.968;7.754;2023-08-17T08:05:41;-18916.00;;;20.05;nan
28606;BME280;46498;49.968;7.754;2023-08-17T08:10:42;-18926.00;;;20.37;nan
28606;BME280;46498;49.968;7.754;2023-08-17T08:15:43;-18927.00;;;20.40;nan
28606;BME280;46498;49.968;7.754;2023-08-17T08:20:43;-18929.00;;;20.45;nan
28606;BME280;46498;49.968;7.754;2023-08-17T08:25:44;-18937.00;;;20.70;nan
28606;BME280;46498;49.968;7.754;2023-08-17T08:30:45;-18941.00;;;20.85;nan
28606;BME280;46498;49.968;7.754;2023-08-17T08:35:46;-18948.00;;;21.05;nan
28606;BME280;46498;49.968;7.754;2023-08-17T08:40:47;-18950.00;;;21.11;nan
28606;BME280;46498;49.968;7.754;2023-08-17T08:45:49;-18950.00;;;21.11;nan
28606;BME280;46498;49.968;7.754;2023-08-17T08:50:54;-18947.00;;;21.03;nan
28606;BME280;46498;49.968;7.754;2023-08-17T08:55:58;-18956.00;;;21.31;nan
28606;BME280;46498;49.968;7.754;2023-08-17T09:01:00;-18961.00;;;21.46;nan
28606;BME280;46498;49.968;7.754;2023-08-17T09:06:02;-18968.00;;;21.69;nan
28606;BME280;46498;49.968;7.754;2023-08-17T09:11:04;-18976.00;;;21.94;nan
28606;BME280;46498;49.968;7.754;2023-08-17T09:16:04;-18984.00;;;22.18;nan
28606;BME280;46498;49.968;7.754;2023-08-17T09:21:19;-18987.00;;;22.29;nan
28606;BME280;46498;49.968;7.754;2023-08-17T09:26:21;-18987.00;;;22.27;nan
28606;BME280;46498;49.968;7.754;2023-08-17T09:31:24;-18992.00;;;22.45;nan
28606;BME280;46498;49.968;7.754;2023-08-17T09:36:25;-18992.00;;;22.45;nan
28606;BME280;46498;49.968;7.754;2023-08-17T09:41:26;-18983.00;;;22.17;nan
28606;BME280;46498;49.968;7.754;2023-08-17T09:46:29;-18979.00;;;22.04;nan
28606;BME280;46498;49.968;7.754;2023-08-17T09:51:30;-18979.00;;;22.03;nan
28606;BME280;46498;49.968;7.754;2023-08-17T09:56:31;-18979.00;;;22.04;nan
28606;BME280;46498;49.968;7.754;2023-08-17T10:01:32;-18994.00;;;22.51;nan
28606;BME280;46498;49.968;7.754;2023-08-17T10:06:34;-19009.00;;;22.99;nan
28606;BME280;46498;49.968;7.754;2023-08-17T10:11:38;-19013.00;;;23.10;nan
28606;BME280;46498;49.968;7.754;2023-08-17T10:16:50;-19025.00;;;23.48;nan
28606;BME280;46498;49.968;7.754;2023-08-17T10:22:05;-19034.00;;;23.76;nan
28606;BME280;46498;49.968;7.754;2023-08-17T10:27:08;-19038.00;;;23.91;nan
28606;BME280;46498;49.968;7.754;2023-08-17T10:32:11;-19032.00;;;23.69;nan
28606;BME280;46498;49.968;7.754;2023-08-17T10:37:18;-19035.00;;;23.81;nan
28606;BME280;46498;49.968;7.754;2023-08-17T10:42:35;-19024.00;;;23.46;nan
28606;BME280;46498;49.968;7.754;2023-08-17T10:47:36;-19013.00;;;23.10;nan
28606;BME280;46498;49.968;7.754;2023-08-17T10:52:38;-19010.00;;;23.00;nan
28606;BME280;46498;49.968;7.754;2023-08-17T10:57:41;-19016.00;;;23.20;nan
28606;BME280;46498;49.968;7.754;2023-08-17T11:02:58;-19030.00;;;23.63;nan
28606;BME280;46498;49.968;7.754;2023-08-17T11:08:02;-19042.00;;;24.02;nan
28606;BME280;46498;49.968;7.754;2023-08-17T11:13:04;-19032.00;;;23.70;nan
28606;BME280;46498;49.968;7.754;2023-08-17T11:18:06;-19028.00;;;23.58;nan
28606;BME280;46498;49.968;7.754;2023-08-17T11:23:10;-19028.00;;;23.58;nan
28606;BME280;46498;49.968;7.754;2023-08-17T11:28:13;-19017.00;;;23.23;nan
28606;BME280;46498;49.968;7.754;2023-08-17T11:33:14;-19036.00;;;23.82;nan
28606;BME280;46498;49.968;7.754;2023-08-17T11:38:15;-19049.00;;;24.25;nan
28606;BME280;46498;49.968;7.754;2023-08-17T11:43:16;-19061.00;;;24.60;nan
28606;BME280;46498;49.968;7.754;2023-08-17T11:48:23;-19067.00;;;24.82;nan
28606;BME280;46498;49.968;7.754;2023-08-17T11:53:24;-19059.00;;;24.56;nan
28606;BME280;46498;49.968;7.754;2023-08-17T11:58:46;-19056.00;;;24.45;nan
28606;BME280;46498;49.968;7.754;2023-08-17T12:03:48;-19059.00;;;24.56;nan
28606;BME280;46498;49.968;7.754;2023-08-17T12:08:49;-19063.00;;;24.68;nan
28606;BME280;46498;49.968;7.754;2023-08-17T12:13:52;-19068.00;;;24.85;nan
28606;BME280;46498;49.968;7.754;2023-08-17T12:18:53;-19049.00;;;24.23;nan
28606;BME280;46498;49.968;7.754;2023-08-17T12:23:55;-19033.00;;;23.74;nan
28606;BME280;46498;49.968;7.754;2023-08-17T12:28:56;-19029.00;;;23.62;nan
28606;BME280;46498;49.968;7.754;2023-08-17T12:33:56;-19025.00;;;23.48;nan
28606;BME280;46498;49.968;7.754;2023-08-17T12:38:57;-19025.00;;;23.49;nan
28606;BME280;46498;49.968;7.754;2023-08-17T12:43:58;-19022.00;;;23.38;nan
28606;BME280;46498;49.968;7.754;2023-08-17T12:48:59;-19015.00;;;23.18;nan
28606;BME280;46498;49.968;7.754;2023-08-17T12:54:00;-19018.00;;;23.25;nan
28606;BME280;46498;49.968;7.754;2023-08-17T12:59:01;-19023.00;;;23.43;nan
28606;BME280;46498;49.968;7.754;2023-08-17T13:04:03;-19035.00;;;23.81;nan
28606;BME280;46498;49.968;7.754;2023-08-17T13:09:05;-19054.00;;;24.39;nan
28606;BME280;46498;49.968;7.754;2023-08-17T13:14:06;-19049.00;;;24.23;nan
28606;BME280;46498;49.968;7.754;2023-08-17T13:19:07;-19042.00;;;24.02;nan
28606;BME280;46498;49.968;7.754;2023-08-17T13:24:08;-19055.00;;;24.43;nan
28606;BME280;46498;49.968;7.754;2023-08-17T13:29:09;-19084.00;;;25.33;nan
28606;BME280;46498;49.968;7.754;2023-08-17T13:34:10;-19094.00;;;25.67;nan
28606;BME280;46498;49.968;7.754;2023-08-17T13:39:12;-19102.00;;;25.93;nan
28606;BME280;46498;49.968;7.754;2023-08-17T13:44:12;-19090.00;;;25.54;nan
28606;BME280;46498;49.968;7.754;2023-08-17T13:49:13;-19073.00;;;25.01;nan
28606;BME280;46498;49.968;7.754;2023-08-17T13:54:14;-19079.00;;;25.20;nan
28606;BME280;46498;49.968;7.754;2023-08-17T13:59:15;-19076.00;;;25.09;nan
28606;BME280;46498;49.968;7.754;2023-08-17T14:04:16;-19090.00;;;25.55;nan
28606;BME280;46498;49.968;7.754;2023-08-17T14:09:18;-19098.00;;;25.80;nan
28606;BME280;46498;49.968;7.754;2023-08-17T14:14:19;-19115.00;;;26.31;nan
28606;BME280;46498;49.968;7.754;2023-08-17T14:19:20;-19133.00;;;26.89;nan
28606;BME280;46498;49.968;7.754;2023-08-17T14:24:21;-19140.00;;;27.12;nan
28606;BME280;46498;49.968;7.754;2023-08-17T14:29:22;-19132.00;;;26.85;nan
28606;BME280;46498;49.968;7.754;2023-08-17T14:34:23;-19134.00;;;26.93;nan
28606;BME280;46498;49.968;7.754;2023-08-17T14:39:24;-19129.00;;;26.76;nan
28606;BME280;46498;49.968;7.754;2023-08-17T14:44:25;-19115.00;;;26.34;nan
28606;BME280;46498;49.968;7.754;2023-08-17T14:49:26;-19108.00;;;26.10;nan
28606;BME280;46498;49.968;7.754;2023-08-17T14:54:27;-19107.00;;;26.06;nan
28606;BME280;46498;49.968;7.754;2023-08-17T14:59:29;-19097.00;;;25.75;nan
28606;BME280;46498;49.968;7.754;2023-08-17T15:04:30;-19109.00;;;26.14;nan
28606;BME280;46498;49.968;7.754;2023-08-17T15:09:31;-19109.00;;;26.13;nan
28606;BME280;46498;49.968;7.754;2023-08-17T15:14:32;-19116.00;;;26.36;nan
28606;BME280;46498;49.968;7.754;2023-08-17T15:19:33;-19108.00;;;26.09;nan
28606;BME280;46498;49.968;7.754;2023-08-17T15:24:41;-19092.00;;;25.61;nan
28606;BME280;46498;49.968;7.754;2023-08-17T15:29:44;-19087.00;;;25.45;nan
28606;BME280;46498;49.968;7.754;2023-08-17T15:34:44;-19093.00;;;25.63;nan
28606;BME280;46498;49.968;7.754;2023-08-17T15:39:45;-19096.00;;;25.72;nan
28606;BME280;46498;49.968;7.754;2023-08-17T15:44:46;-19097.00;;;25.75;nan
28606;BME280;46498;49.968;7.754;2023-08-17T15:49:47;-19102.00;;;25.92;nan
28606;BME280;46498;49.968;7.754;2023-08-17T15:54:48;-19108.00;;;26.09;nan
28606;BME280;46498;49.968;7.754;2023-08-17T15:59:49;-19109.00;;;26.12;nan
28606;BME280;46498;49.968;7.754;2023-08-17T16:04:50;-19107.00;;;26.07;nan
28606;BME280;46498;49.968;7.754;2023-08-17T16:09:51;-19099.00;;;25.82;nan
28606;BME280;46498;49.968;7.754;2023-08-17T16:14:52;-19100.00;;;25.85;nan
28606;BME280;46498;49.968;7.754;2023-08-17T16:19:53;-19098.00;;;25.80;nan
28606;BME280;46498;49.968;7.754;2023-08-17T16:24:54;-19094.00;;;25.66;nan
28606;BME280;46498;49.968;7.754;2023-08-17T16:29:55;-19084.00;;;25.34;nan
28606;BME280;46498;49.968;7.754;2023-08-17T16:34:56;-19071.00;;;24.92;nan
28606;BME280;46498;49.968;7.754;2023-08-17T16:39:57;-19065.00;;;24.75;nan
28606;BME280;46498;49.968;7.754;2023-08-17T16:44:58;-19055.00;;;24.44;nan
28606;BME280;46498;49.968;7.754;2023-08-17T16:49:59;-19051.00;;;24.30;nan
28606;BME280;46498;49.968;7.754;2023-08-17T16:55:01;-19050.00;;;24.27;nan
28606;BME280;46498;49.968;7.754;2023-08-17T17:00:02;-19043.00;;;24.06;nan
28606;BME280;46498;49.968;7.754;2023-08-17T17:05:06;-19038.00;;;23.91;nan
28606;BME280;46498;49.968;7.754;2023-08-17T17:10:07;-19038.00;;;23.90;nan
28606;BME280;46498;49.968;7.754;2023-08-17T17:15:09;-19033.00;;;23.72;nan
28606;BME280;46498;49.968;7.754;2023-08-17T17:20:10;-19030.00;;;23.63;nan
28606;BME280;46498;49.968;7.754;2023-08-17T17:25:11;-19024.00;;;23.44;nan
28606;BME280;46498;49.968;7.754;2023-08-17T17:30:13;-19024.00;;;23.46;nan
28606;BME280;46498;49.968;7.754;2023-08-17T17:35:13;-19017.00;;;23.24;nan
28606;BME280;46498;49.968;7.754;2023-08-17T17:40:14;-19014.00;;;23.14;nan
28606;BME280;46498;49.968;7.754;2023-08-17T17:45:17;-19015.00;;;23.15;nan
28606;BME280;46498;49.968;7.754;2023-08-17T17:50:18;-19009.00;;;22.97;nan
28606;BME280;46498;49.968;7.754;2023-08-17T17:55:19;-19002.00;;;22.74;nan
28606;BME280;46498;49.968;7.754;2023-08-17T18:00:20;-18999.00;;;22.67;nan
28606;BME280;46498;49.968;7.754;2023-08-17T18:05:21;-18997.00;;;22.59;nan
28606;BME280;46498;49.968;7.754;2023-08-17T18:10:23;-18998.00;;;22.63;nan
28606;BME280;46498;49.968;7.754;2023-08-17T18:15:24;-18989.00;;;22.35;nan
28606;BME280;46498;49.968;7.754;2023-08-17T18:20:25;-18987.00;;;22.28;nan
28606;BME280;46498;49.968;7.754;2023-08-17T18:25:26;-18983.00;;;22.15;nan
28606;BME280;46498;49.968;7.754;2023-08-17T18:30:29;-18982.00;;;22.11;nan
28606;BME280;46498;49.968;7.754;2023-08-17T18:35:32;-18978.00;;;22.01;nan
28606;BME280;46498;49.968;7.754;2023-08-17T18:40:33;-18973.00;;;21.84;nan
28606;BME280;46498;49.968;7.754;2023-08-17T18:45:34;-18970.00;;;21.74;nan
28606;BME280;46498;49.968;7.754;2023-08-17T18:50:35;-18970.00;;;21.74;nan
28606;BME280;46498;49.968;7.754;2023-08-17T18:55:36;-18969.00;;;21.72;nan
28606;BME280;46498;49.968;7.754;2023-08-17T19:00:37;-18965.00;;;21.60;nan
28606;BME280;46498;49.968;7.754;2023-08-17T19:05:38;-18963.00;;;21.52;nan
28606;BME280;46498;49.968;7.754;2023-08-17T19:10:40;-18955.00;;;21.28;nan
28606;BME280;46498;49.968;7.754;2023-08-17T19:15:40;-18955.00;;;21.27;nan
28606;BME280;46498;49.968;7.754;2023-08-17T19:20:42;-18956.00;;;21.31;nan
28606;BME280;46498;49.968;7.754;2023-08-17T19:25:42;-18950.00;;;21.13;nan
28606;BME280;46498;49.968;7.754;2023-08-17T19:30:43;-18948.00;;;21.05;nan
28606;BME280;46498;49.968;7.754;2023-08-17T19:35:44;-18947.00;;;21.02;nan
28606;BME280;46498;49.968;7.754;2023-08-17T19:40:46;-18946.00;;;20.98;nan
28606;BME280;46498;49.968;7.754;2023-08-17T19:45:47;-18942.00;;;20.87;nan
28606;BME280;46498;49.968;7.754;2023-08-17T19:50:48;-18942.00;;;20.88;nan
28606;BME280;46498;49.968;7.754;2023-08-17T19:55:49;-18941.00;;;20.84;nan
28606;BME280;46498;49.968;7.754;2023-08-17T20:00:50;-18938.00;;;20.73;nan
28606;BME280;46498;49.968;7.754;2023-08-17T20:05:55;-18937.00;;;20.69;nan
28606;BME280;46498;49.968;7.754;2023-08-17T20:10:56;-18938.00;;;20.74;nan
28606;BME280;46498;49.968;7.754;2023-08-17T20:15:57;-18930.00;;;20.48;nan
28606;BME280;46498;49.968;7.754;2023-08-17T20:20:58;-18929.00;;;20.46;nan
28606;BME280;46498;49.968;7.754;2023-08-17T20:25:59;-18922.00;;;20.23;nan
28606;BME280;46498;49.968;7.754;2023-08-17T20:31:00;-18921.00;;;20.19;nan
28606;BME280;46498;49.968;7.754;2023-08-17T20:36:02;-18922.00;;;20.24;nan
28606;BME280;46498;49.968;7.754;2023-08-17T20:41:02;-18925.00;;;20.32;nan
28606;BME280;46498;49.968;7.754;2023-08-17T20:46:06;-18931.00;;;20.52;nan
28606;BME280;46498;49.968;7.754;2023-08-17T20:51:07;-18927.00;;;20.38;nan
28606;BME280;46498;49.968;7.754;2023-08-17T20:56:08;-18926.00;;;20.35;nan
28606;BME280;46498;49.968;7.754;2023-08-17T21:01:09;-18925.00;;;20.32;nan
28606;BME280;46498;49.968;7.754;2023-08-17T21:06:10;-18920.00;;;20.18;nan
28606;BME280;46498;49.968;7.754;2023-08-17T21:11:11;-18916.00;;;20.06;nan
28606;BME280;46498;49.968;7.754;2023-08-17T21:16:12;-18917.00;;;20.08;nan
28606;BME280;46498;49.968;7.754;2023-08-17T21:21:13;-18914.00;;;19.99;nan
28606;BME280;46498;49.968;7.754;2023-08-17T21:26:14;-18907.00;;;19.75;nan
28606;BME280;46498;49.968;7.754;2023-08-17T21:31:15;-18909.00;;;19.82;nan
28606;BME280;46498;49.968;7.754;2023-08-17T21:36:16;-18912.00;;;19.92;nan
28606;BME280;46498;49.968;7.754;2023-08-17T21:41:17;-18912.00;;;19.91;nan
28606;BME280;46498;49.968;7.754;2023-08-17T21:46:18;-18909.00;;;19.83;nan
28606;BME280;46498;49.968;7.754;2023-08-17T21:51:19;-18910.00;;;19.84;nan
28606;BME280;46498;49.968;7.754;2023-08-17T21:56:20;-18908.00;;;19.80;nan
28606;BME280;46498;49.968;7.754;2023-08-17T22:01:20;-18905.00;;;19.71;nan
28606;BME280;46498;49.968;7.754;2023-08-17T22:06:21;-18902.00;;;19.60;nan
28606;BME280;46498;49.968;7.754;2023-08-17T22:11:22;-18901.00;;;19.57;nan
28606;BME280;46498;49.968;7.754;2023-08-17T22:16:23;-18900.00;;;19.55;nan
28606;BME280;46498;49.968;7.754;2023-08-17T22:21:24;-18901.00;;;19.57;nan
28606;BME280;46498;49.968;7.754;2023-08-17T22:26:25;-18899.00;;;19.52;nan
28606;BME280;46498;49.968;7.754;2023-08-17T22:31:26;-18900.00;;;19.53;nan
28606;BME280;46498;49.968;7.754;2023-08-17T22:36:27;-18903.00;;;19.64;nan
28606;BME280;46498;49.968;7.754;2023-08-17T22:41:28;-18902.00;;;19.60;nan
28606;BME280;46498;49.968;7.754;2023-08-17T22:46:28;-18899.00;;;19.51;nan
28606;BME280;46498;49.968;7.754;2023-08-17T22:51:29;-18898.00;;;19.48;nan
28606;BME280;46498;49.968;7.754;2023-08-17T22:56:30;-18893.00;;;19.34;nan
28606;BME280;46498;49.968;7.754;2023-08-17T23:01:31;-18890.00;;;19.24;nan
28606;BME280;46498;49.968;7.754;2023-08-17T23:06:32;-18892.00;;;19.30;nan
28606;BME280;46498;49.968;7.754;2023-08-17T23:11:33;-18895.00;;;19.38;nan
28606;BME280;46498;49.968;7.754;2023-08-17T23:16:34;-18895.00;;;19.40;nan
28606;BME280;46498;49.968;7.754;2023-08-17T23:21:35;-18896.00;;;19.40;nan
28606;BME280;46498;49.968;7.754;2023-08-17T23:26:36;-18897.00;;;19.44;nan
28606;BME280;46498;49.968;7.754;2023-08-17T23:31:37;-18896.00;;;19.43;nan
28606;BME280;46498;49.968;7.754;2023-08-17T23:36:38;-18891.00;;;19.26;nan
28606;BME280;46498;49.968;7.754;2023-08-17T23:41:38;-18884.00;;;19.04;nan
28606;BME280;46498;49.968;7.754;2023-08-17T23:46:39;-18885.00;;;19.07;nan
28606;BME280;46498;49.968;7.754;2023-08-17T23:51:40;-18888.00;;;19.18;nan
28606;BME280;46498;49.968;7.754;2023-08-17T23:56:41;-18890.00;;;19.21;nan
